sensor_id;sensor_type;location;lat;lon;timestamp;pressure;altitude;pressure_sealevel;temperature;humidity
62057;BME280;48016;50.284;18.860;2023-04-08T00:02:23;98260.80;;;2.42;87.63
62057;BME280;48016;50.284;18.860;2023-04-08T00:04:50;98260.92;;;2.42;87.55
62057;BME280;48016;50.284;18.860;2023-04-08T00:07:17;98261.73;;;2.42;87.52
62057;BME280;48016;50.284;18.860;2023-04-08T00:09:43;98261.13;;;2.40;87.70
62057;BME280;48016;50.284;18.860;2023-04-08T00:12:10;98262.48;;;2.38;87.76
62057;BME280;48016;50.284;18.860;2023-04-08T00:14:37;98266.05;;;2.40;87.68
62057;BME280;48016;50.284;18.860;2023-04-08T00:17:03;98275.56;;;2.40;87.61
62057;BME280;48016;50.284;18.860;2023-04-08T00:19:30;98278.50;;;2.40;87.55
62057;BME280;48016;50.284;18.860;2023-04-08T00:21:57;98280.11;;;2.35;87.52
62057;BME280;48016;50.284;18.860;2023-04-08T00:24:23;98281.15;;;2.33;87.59
62057;BME280;48016;50.284;18.860;2023-04-08T00:26:50;98280.57;;;2.33;87.55
62057;BME280;48016;50.284;18.860;2023-04-08T00:29:17;98284.14;;;2.31;87.35
62057;BME280;48016;50.284;18.860;2023-04-08T00:31:44;98282.16;;;2.24;87.24
62057;BME280;48016;50.284;18.860;2023-04-08T00:34:11;98287.85;;;2.21;87.35
62057;BME280;48016;50.284;18.860;2023-04-08T00:36:37;98296.41;;;2.17;87.31
62057;BME280;48016;50.284;18.860;2023-04-08T00:39:04;98290.95;;;2.14;87.65
62057;BME280;48016;50.284;18.860;2023-04-08T00:41:35;98293.75;;;2.14;87.54
62057;BME280;48016;50.284;18.860;2023-04-08T00:44:01;98297.75;;;2.13;87.61
62057;BME280;48016;50.284;18.860;2023-04-08T00:46:28;98297.14;;;2.11;87.50
62057;BME280;48016;50.284;18.860;2023-04-08T00:48:54;98299.04;;;2.12;87.61
62057;BME280;48016;50.284;18.860;2023-04-08T00:51:21;98298.66;;;2.12;87.71
62057;BME280;48016;50.284;18.860;2023-04-08T00:53:48;98300.21;;;2.08;87.78
62057;BME280;48016;50.284;18.860;2023-04-08T00:56:14;98300.58;;;2.07;87.68
62057;BME280;48016;50.284;18.860;2023-04-08T00:58:41;98298.89;;;2.09;87.66
62057;BME280;48016;50.284;18.860;2023-04-08T01:01:41;98301.38;;;2.12;87.57
62057;BME280;48016;50.284;18.860;2023-04-08T01:04:23;98302.23;;;2.11;87.79
62057;BME280;48016;50.284;18.860;2023-04-08T01:09:32;98300.71;;;2.11;87.40
62057;BME280;48016;50.284;18.860;2023-04-08T01:12:05;98300.87;;;2.10;87.19
62057;BME280;48016;50.284;18.860;2023-04-08T01:14:38;98305.48;;;2.05;87.29
62057;BME280;48016;50.284;18.860;2023-04-08T01:17:07;98309.58;;;2.02;87.27
62057;BME280;48016;50.284;18.860;2023-04-08T01:19:38;98309.82;;;1.99;87.38
62057;BME280;48016;50.284;18.860;2023-04-08T01:25:16;98309.54;;;1.94;87.11
62057;BME280;48016;50.284;18.860;2023-04-08T01:27:47;98311.02;;;1.92;86.94
62057;BME280;48016;50.284;18.860;2023-04-08T01:30:18;98313.73;;;1.92;86.78
62057;BME280;48016;50.284;18.860;2023-04-08T01:32:46;98312.50;;;1.92;86.86
62057;BME280;48016;50.284;18.860;2023-04-08T01:35:14;98309.27;;;1.93;86.68
62057;BME280;48016;50.284;18.860;2023-04-08T01:37:42;98314.73;;;1.96;86.62
62057;BME280;48016;50.284;18.860;2023-04-08T01:40:10;98313.80;;;2.00;86.51
62057;BME280;48016;50.284;18.860;2023-04-08T01:42:37;98316.17;;;1.97;86.42
62057;BME280;48016;50.284;18.860;2023-04-08T01:45:05;98317.97;;;1.96;86.37
62057;BME280;48016;50.284;18.860;2023-04-08T01:47:33;98315.70;;;1.94;86.36
62057;BME280;48016;50.284;18.860;2023-04-08T01:50:01;98320.05;;;1.94;86.28
62057;BME280;48016;50.284;18.860;2023-04-08T01:52:28;98321.70;;;1.89;85.94
62057;BME280;48016;50.284;18.860;2023-04-08T01:54:55;98322.99;;;1.82;85.84
62057;BME280;48016;50.284;18.860;2023-04-08T01:57:23;98323.50;;;1.76;85.75
62057;BME280;48016;50.284;18.860;2023-04-08T01:59:57;98324.40;;;1.75;86.00
62057;BME280;48016;50.284;18.860;2023-04-08T02:02:26;98324.44;;;1.75;86.05
62057;BME280;48016;50.284;18.860;2023-04-08T02:04:53;98326.69;;;1.73;85.96
62057;BME280;48016;50.284;18.860;2023-04-08T02:07:21;98324.40;;;1.67;86.02
62057;BME280;48016;50.284;18.860;2023-04-08T02:09:47;98324.75;;;1.64;86.09
62057;BME280;48016;50.284;18.860;2023-04-08T02:12:15;98331.84;;;1.62;86.07
62057;BME280;48016;50.284;18.860;2023-04-08T02:14:42;98328.31;;;1.57;85.95
62057;BME280;48016;50.284;18.860;2023-04-08T02:17:12;98329.37;;;1.53;85.92
62057;BME280;48016;50.284;18.860;2023-04-08T02:19:44;98330.21;;;1.51;85.81
62057;BME280;48016;50.284;18.860;2023-04-08T02:22:18;98330.02;;;1.47;85.55
62057;BME280;48016;50.284;18.860;2023-04-08T02:24:49;98336.78;;;1.45;85.69
62057;BME280;48016;50.284;18.860;2023-04-08T02:27:17;98334.63;;;1.43;85.66
62057;BME280;48016;50.284;18.860;2023-04-08T02:29:44;98339.39;;;1.44;85.63
62057;BME280;48016;50.284;18.860;2023-04-08T02:32:13;98341.40;;;1.44;85.80
62057;BME280;48016;50.284;18.860;2023-04-08T02:34:40;98343.02;;;1.45;85.71
62057;BME280;48016;50.284;18.860;2023-04-08T02:37:08;98347.10;;;1.44;85.66
62057;BME280;48016;50.284;18.860;2023-04-08T02:39:35;98347.27;;;1.37;85.42
62057;BME280;48016;50.284;18.860;2023-04-08T02:42:03;98348.05;;;1.33;85.53
62057;BME280;48016;50.284;18.860;2023-04-08T02:44:30;98344.14;;;1.29;85.44
62057;BME280;48016;50.284;18.860;2023-04-08T02:46:57;98347.77;;;1.24;85.53
62057;BME280;48016;50.284;18.860;2023-04-08T02:49:24;98349.22;;;1.20;85.39
62057;BME280;48016;50.284;18.860;2023-04-08T02:51:50;98348.35;;;1.17;85.40
62057;BME280;48016;50.284;18.860;2023-04-08T02:54:17;98354.79;;;1.14;85.59
62057;BME280;48016;50.284;18.860;2023-04-08T02:56:43;98349.77;;;1.10;85.80
62057;BME280;48016;50.284;18.860;2023-04-08T02:59:10;98358.17;;;1.07;85.70
62057;BME280;48016;50.284;18.860;2023-04-08T03:01:37;98359.29;;;1.03;85.82
62057;BME280;48016;50.284;18.860;2023-04-08T03:04:03;98360.63;;;1.01;85.84
62057;BME280;48016;50.284;18.860;2023-04-08T03:06:30;98364.46;;;0.96;86.23
62057;BME280;48016;50.284;18.860;2023-04-08T03:08:57;98363.48;;;0.94;86.26
62057;BME280;48016;50.284;18.860;2023-04-08T03:11:24;98364.59;;;0.95;86.30
62057;BME280;48016;50.284;18.860;2023-04-08T03:13:51;98365.88;;;0.98;86.42
62057;BME280;48016;50.284;18.860;2023-04-08T03:16:18;98365.66;;;0.98;86.37
62057;BME280;48016;50.284;18.860;2023-04-08T03:18:44;98362.29;;;0.99;86.25
62057;BME280;48016;50.284;18.860;2023-04-08T03:21:11;98363.44;;;0.99;86.31
62057;BME280;48016;50.284;18.860;2023-04-08T03:23:38;98362.89;;;0.98;86.46
62057;BME280;48016;50.284;18.860;2023-04-08T03:26:04;98363.88;;;0.94;86.46
62057;BME280;48016;50.284;18.860;2023-04-08T03:28:31;98369.96;;;0.90;86.56
62057;BME280;48016;50.284;18.860;2023-04-08T03:30:57;98362.08;;;0.89;86.49
62057;BME280;48016;50.284;18.860;2023-04-08T03:33:26;98369.20;;;0.89;86.61
62057;BME280;48016;50.284;18.860;2023-04-08T03:35:53;98368.48;;;0.91;86.53
62057;BME280;48016;50.284;18.860;2023-04-08T03:38:20;98370.25;;;0.91;86.47
62057;BME280;48016;50.284;18.860;2023-04-08T03:40:47;98376.47;;;0.91;86.34
62057;BME280;48016;50.284;18.860;2023-04-08T03:43:13;98377.42;;;0.87;86.51
62057;BME280;48016;50.284;18.860;2023-04-08T03:45:40;98377.45;;;0.85;86.55
62057;BME280;48016;50.284;18.860;2023-04-08T03:48:07;98378.48;;;0.83;86.53
62057;BME280;48016;50.284;18.860;2023-04-08T03:50:33;98381.86;;;0.84;86.18
62057;BME280;48016;50.284;18.860;2023-04-08T03:53:00;98382.10;;;0.87;86.32
62057;BME280;48016;50.284;18.860;2023-04-08T03:55:26;98386.89;;;0.89;86.41
62057;BME280;48016;50.284;18.860;2023-04-08T03:57:53;98388.18;;;0.91;86.09
62057;BME280;48016;50.284;18.860;2023-04-08T04:00:19;98389.86;;;0.90;85.64
62057;BME280;48016;50.284;18.860;2023-04-08T04:02:46;98389.40;;;0.89;85.57
62057;BME280;48016;50.284;18.860;2023-04-08T04:05:13;98391.17;;;0.91;85.67
62057;BME280;48016;50.284;18.860;2023-04-08T04:07:39;98396.30;;;0.91;85.61
62057;BME280;48016;50.284;18.860;2023-04-08T04:10:06;98395.34;;;0.94;85.50
62057;BME280;48016;50.284;18.860;2023-04-08T04:12:33;98400.23;;;0.91;85.51
62057;BME280;48016;50.284;18.860;2023-04-08T04:15:00;98399.73;;;0.86;85.54
62057;BME280;48016;50.284;18.860;2023-04-08T04:17:27;98406.63;;;0.88;85.37
62057;BME280;48016;50.284;18.860;2023-04-08T04:19:54;98413.77;;;0.92;85.39
62057;BME280;48016;50.284;18.860;2023-04-08T04:22:20;98415.68;;;0.92;85.26
62057;BME280;48016;50.284;18.860;2023-04-08T04:24:48;98419.58;;;0.89;85.08
62057;BME280;48016;50.284;18.860;2023-04-08T04:27:15;98421.98;;;0.87;84.94
62057;BME280;48016;50.284;18.860;2023-04-08T04:29:42;98424.85;;;0.84;84.84
62057;BME280;48016;50.284;18.860;2023-04-08T04:32:09;98425.80;;;0.83;84.92
62057;BME280;48016;50.284;18.860;2023-04-08T04:34:36;98425.40;;;0.82;84.82
62057;BME280;48016;50.284;18.860;2023-04-08T04:37:03;98428.21;;;0.80;84.64
62057;BME280;48016;50.284;18.860;2023-04-08T04:39:29;98426.36;;;0.80;84.74
62057;BME280;48016;50.284;18.860;2023-04-08T04:41:56;98423.03;;;0.82;84.68
62057;BME280;48016;50.284;18.860;2023-04-08T04:44:23;98424.83;;;0.86;84.85
62057;BME280;48016;50.284;18.860;2023-04-08T04:46:49;98432.04;;;0.91;84.76
62057;BME280;48016;50.284;18.860;2023-04-08T04:49:16;98433.34;;;0.93;84.94
62057;BME280;48016;50.284;18.860;2023-04-08T04:51:43;98437.47;;;0.94;85.08
62057;BME280;48016;50.284;18.860;2023-04-08T04:54:09;98441.45;;;0.98;85.17
62057;BME280;48016;50.284;18.860;2023-04-08T04:56:36;98434.86;;;0.98;85.10
62057;BME280;48016;50.284;18.860;2023-04-08T04:59:02;98436.77;;;1.01;85.16
62057;BME280;48016;50.284;18.860;2023-04-08T05:01:30;98443.70;;;1.07;85.07
62057;BME280;48016;50.284;18.860;2023-04-08T05:03:57;98444.89;;;1.06;85.17
62057;BME280;48016;50.284;18.860;2023-04-08T05:06:24;98443.63;;;1.09;85.04
62057;BME280;48016;50.284;18.860;2023-04-08T05:08:51;98451.39;;;1.13;85.00
62057;BME280;48016;50.284;18.860;2023-04-08T05:11:18;98451.79;;;1.16;84.98
62057;BME280;48016;50.284;18.860;2023-04-08T05:13:47;98453.45;;;1.19;84.81
62057;BME280;48016;50.284;18.860;2023-04-08T05:16:13;98455.73;;;1.23;84.85
62057;BME280;48016;50.284;18.860;2023-04-08T05:18:40;98461.02;;;1.30;84.71
62057;BME280;48016;50.284;18.860;2023-04-08T05:21:06;98463.48;;;1.32;84.49
62057;BME280;48016;50.284;18.860;2023-04-08T05:23:34;98461.60;;;1.36;84.70
62057;BME280;48016;50.284;18.860;2023-04-08T05:26:00;98463.40;;;1.43;84.62
62057;BME280;48016;50.284;18.860;2023-04-08T05:28:27;98467.42;;;1.47;84.23
62057;BME280;48016;50.284;18.860;2023-04-08T05:30:53;98473.13;;;1.49;84.46
62057;BME280;48016;50.284;18.860;2023-04-08T05:33:21;98474.48;;;1.55;84.20
62057;BME280;48016;50.284;18.860;2023-04-08T05:35:47;98480.99;;;1.58;83.95
62057;BME280;48016;50.284;18.860;2023-04-08T05:38:14;98480.14;;;1.59;83.73
62057;BME280;48016;50.284;18.860;2023-04-08T05:40:40;98479.13;;;1.64;83.76
62057;BME280;48016;50.284;18.860;2023-04-08T05:43:07;98482.14;;;1.66;83.63
62057;BME280;48016;50.284;18.860;2023-04-08T05:45:34;98484.94;;;1.69;83.57
62057;BME280;48016;50.284;18.860;2023-04-08T05:48:00;98486.33;;;1.73;83.29
62057;BME280;48016;50.284;18.860;2023-04-08T05:50:27;98494.89;;;1.77;83.05
62057;BME280;48016;50.284;18.860;2023-04-08T05:52:54;98494.61;;;1.79;82.89
62057;BME280;48016;50.284;18.860;2023-04-08T05:55:21;98495.13;;;1.88;82.99
62057;BME280;48016;50.284;18.860;2023-04-08T05:57:47;98494.77;;;2.04;82.80
62057;BME280;48016;50.284;18.860;2023-04-08T06:00:14;98501.00;;;2.20;82.37
62057;BME280;48016;50.284;18.860;2023-04-08T06:02:42;98496.41;;;2.39;81.43
62057;BME280;48016;50.284;18.860;2023-04-08T06:05:08;98502.65;;;2.50;81.06
62057;BME280;48016;50.284;18.860;2023-04-08T06:07:35;98502.23;;;2.63;80.36
62057;BME280;48016;50.284;18.860;2023-04-08T06:10:02;98501.04;;;2.81;80.35
62057;BME280;48016;50.284;18.860;2023-04-08T06:12:30;98501.34;;;2.92;80.16
62057;BME280;48016;50.284;18.860;2023-04-08T06:14:57;98504.45;;;3.08;79.36
62057;BME280;48016;50.284;18.860;2023-04-08T06:17:23;98504.09;;;3.33;79.21
62057;BME280;48016;50.284;18.860;2023-04-08T06:19:50;98502.64;;;3.50;77.91
62057;BME280;48016;50.284;18.860;2023-04-08T06:22:17;98506.59;;;3.78;78.19
62057;BME280;48016;50.284;18.860;2023-04-08T06:24:46;98506.67;;;4.16;76.66
62057;BME280;48016;50.284;18.860;2023-04-08T06:27:12;98509.94;;;4.51;76.48
62057;BME280;48016;50.284;18.860;2023-04-08T06:29:39;98516.64;;;4.79;74.96
62057;BME280;48016;50.284;18.860;2023-04-08T06:32:06;98520.05;;;4.89;73.96
62057;BME280;48016;50.284;18.860;2023-04-08T06:34:33;98524.40;;;5.04;73.43
62057;BME280;48016;50.284;18.860;2023-04-08T06:36:59;98514.99;;;5.28;72.92
62057;BME280;48016;50.284;18.860;2023-04-08T06:39:26;98518.65;;;5.51;72.61
62057;BME280;48016;50.284;18.860;2023-04-08T06:41:53;98525.48;;;5.70;71.12
62057;BME280;48016;50.284;18.860;2023-04-08T06:44:20;98521.34;;;5.93;71.39
62057;BME280;48016;50.284;18.860;2023-04-08T06:46:46;98529.09;;;6.25;71.44
62057;BME280;48016;50.284;18.860;2023-04-08T06:49:13;98536.53;;;6.37;68.56
62057;BME280;48016;50.284;18.860;2023-04-08T06:51:39;98535.96;;;6.49;69.27
62057;BME280;48016;50.284;18.860;2023-04-08T06:54:06;98541.83;;;6.61;67.70
62057;BME280;48016;50.284;18.860;2023-04-08T06:56:35;98543.05;;;6.63;67.06
62057;BME280;48016;50.284;18.860;2023-04-08T06:59:02;98546.64;;;6.74;66.13
62057;BME280;48016;50.284;18.860;2023-04-08T07:01:30;98546.43;;;6.66;65.01
62057;BME280;48016;50.284;18.860;2023-04-08T07:03:59;98550.80;;;6.31;64.03
62057;BME280;48016;50.284;18.860;2023-04-08T07:06:27;98552.10;;;6.11;64.49
62057;BME280;48016;50.284;18.860;2023-04-08T07:08:54;98547.95;;;6.07;65.18
62057;BME280;48016;50.284;18.860;2023-04-08T07:11:20;98551.94;;;6.33;65.07
62057;BME280;48016;50.284;18.860;2023-04-08T07:13:47;98553.17;;;6.40;63.90
62057;BME280;48016;50.284;18.860;2023-04-08T07:16:14;98557.48;;;6.41;62.77
62057;BME280;48016;50.284;18.860;2023-04-08T07:18:40;98558.00;;;6.44;63.25
62057;BME280;48016;50.284;18.860;2023-04-08T07:21:09;98558.03;;;6.69;63.97
62057;BME280;48016;50.284;18.860;2023-04-08T07:23:36;98561.14;;;6.97;63.30
62057;BME280;48016;50.284;18.860;2023-04-08T07:26:02;98562.48;;;7.18;62.62
62057;BME280;48016;50.284;18.860;2023-04-08T07:28:31;98567.00;;;7.43;62.36
62057;BME280;48016;50.284;18.860;2023-04-08T07:31:12;98558.51;;;7.62;62.32
62057;BME280;48016;50.284;18.860;2023-04-08T07:33:40;98561.11;;;7.67;59.83
62057;BME280;48016;50.284;18.860;2023-04-08T07:36:08;98562.02;;;7.71;60.69
62057;BME280;48016;50.284;18.860;2023-04-08T07:38:35;98569.38;;;7.85;60.95
62057;BME280;48016;50.284;18.860;2023-04-08T07:41:01;98569.27;;;8.03;60.34
62057;BME280;48016;50.284;18.860;2023-04-08T07:43:30;98563.02;;;8.18;60.59
62057;BME280;48016;50.284;18.860;2023-04-08T07:46:00;98576.22;;;8.18;59.26
62057;BME280;48016;50.284;18.860;2023-04-08T07:48:29;98576.69;;;8.12;60.15
62057;BME280;48016;50.284;18.860;2023-04-08T07:50:57;98580.48;;;8.19;59.82
62057;BME280;48016;50.284;18.860;2023-04-08T07:53:23;98578.27;;;8.07;58.40
62057;BME280;48016;50.284;18.860;2023-04-08T07:55:51;98578.42;;;8.02;59.41
62057;BME280;48016;50.284;18.860;2023-04-08T07:58:18;98577.84;;;8.18;59.83
62057;BME280;48016;50.284;18.860;2023-04-08T08:00:45;98580.84;;;8.20;58.91
62057;BME280;48016;50.284;18.860;2023-04-08T08:03:11;98578.65;;;8.34;58.88
62057;BME280;48016;50.284;18.860;2023-04-08T08:05:38;98581.66;;;8.51;57.76
62057;BME280;48016;50.284;18.860;2023-04-08T08:08:04;98579.27;;;8.65;58.21
62057;BME280;48016;50.284;18.860;2023-04-08T08:10:32;98588.13;;;8.46;56.75
62057;BME280;48016;50.284;18.860;2023-04-08T08:12:59;98588.70;;;8.19;57.00
62057;BME280;48016;50.284;18.860;2023-04-08T08:15:26;98585.58;;;8.11;57.64
62057;BME280;48016;50.284;18.860;2023-04-08T08:17:52;98582.48;;;8.08;56.60
62057;BME280;48016;50.284;18.860;2023-04-08T08:20:19;98583.02;;;8.08;57.10
62057;BME280;48016;50.284;18.860;2023-04-08T08:22:46;98588.20;;;8.23;58.01
62057;BME280;48016;50.284;18.860;2023-04-08T08:25:12;98590.88;;;8.43;56.79
62057;BME280;48016;50.284;18.860;2023-04-08T08:27:39;98588.06;;;8.27;55.63
62057;BME280;48016;50.284;18.860;2023-04-08T08:30:08;98588.40;;;8.19;56.08
62057;BME280;48016;50.284;18.860;2023-04-08T08:32:34;98593.23;;;8.17;56.18
62057;BME280;48016;50.284;18.860;2023-04-08T08:35:02;98590.11;;;8.16;56.47
62057;BME280;48016;50.284;18.860;2023-04-08T08:37:28;98595.06;;;8.09;56.24
62057;BME280;48016;50.284;18.860;2023-04-08T08:39:55;98591.91;;;8.01;56.90
62057;BME280;48016;50.284;18.860;2023-04-08T08:42:23;98592.56;;;7.99;57.19
62057;BME280;48016;50.284;18.860;2023-04-08T08:44:50;98591.75;;;7.92;57.30
62057;BME280;48016;50.284;18.860;2023-04-08T08:47:17;98594.98;;;7.80;58.06
62057;BME280;48016;50.284;18.860;2023-04-08T08:49:44;98599.65;;;7.82;58.75
62057;BME280;48016;50.284;18.860;2023-04-08T08:52:14;98601.86;;;7.87;57.86
62057;BME280;48016;50.284;18.860;2023-04-08T08:54:42;98604.83;;;7.82;57.43
62057;BME280;48016;50.284;18.860;2023-04-08T08:57:18;98611.93;;;7.63;57.82
62057;BME280;48016;50.284;18.860;2023-04-08T08:59:46;98609.12;;;7.47;57.75
62057;BME280;48016;50.284;18.860;2023-04-08T09:02:28;98603.88;;;7.50;58.61
62057;BME280;48016;50.284;18.860;2023-04-08T09:05:01;98610.48;;;7.56;58.70
62057;BME280;48016;50.284;18.860;2023-04-08T09:07:34;98620.45;;;7.62;58.17
62057;BME280;48016;50.284;18.860;2023-04-08T09:10:02;98624.28;;;7.68;58.73
62057;BME280;48016;50.284;18.860;2023-04-08T09:12:29;98621.35;;;7.84;58.70
62057;BME280;48016;50.284;18.860;2023-04-08T09:15:06;98624.72;;;8.10;59.48
62057;BME280;48016;50.284;18.860;2023-04-08T09:17:34;98632.20;;;8.32;58.28
62057;BME280;48016;50.284;18.860;2023-04-08T09:20:07;98637.73;;;8.11;57.54
62057;BME280;48016;50.284;18.860;2023-04-08T09:25:37;98644.48;;;7.71;58.68
62057;BME280;48016;50.284;18.860;2023-04-08T09:28:04;98647.23;;;7.58;59.15
62057;BME280;48016;50.284;18.860;2023-04-08T09:30:31;98644.59;;;7.61;59.77
62057;BME280;48016;50.284;18.860;2023-04-08T09:32:57;98649.58;;;7.74;59.53
62057;BME280;48016;50.284;18.860;2023-04-08T09:35:24;98651.23;;;7.64;59.27
62057;BME280;48016;50.284;18.860;2023-04-08T09:37:51;98650.05;;;7.51;59.59
62057;BME280;48016;50.284;18.860;2023-04-08T09:40:18;98643.57;;;7.36;60.04
62057;BME280;48016;50.284;18.860;2023-04-08T09:42:47;98640.52;;;7.25;60.53
62057;BME280;48016;50.284;18.860;2023-04-08T09:45:16;98649.95;;;7.39;60.83
62057;BME280;48016;50.284;18.860;2023-04-08T09:47:55;98646.98;;;7.44;60.48
62057;BME280;48016;50.284;18.860;2023-04-08T09:50:26;98654.08;;;7.37;60.31
62057;BME280;48016;50.284;18.860;2023-04-08T09:53:13;98646.05;;;7.29;60.58
62057;BME280;48016;50.284;18.860;2023-04-08T09:55:49;98643.64;;;7.41;61.07
62057;BME280;48016;50.284;18.860;2023-04-08T09:58:33;98640.77;;;7.59;60.72
62057;BME280;48016;50.284;18.860;2023-04-08T10:01:03;98644.64;;;7.81;60.79
62057;BME280;48016;50.284;18.860;2023-04-08T10:03:35;98655.23;;;7.82;59.79
62057;BME280;48016;50.284;18.860;2023-04-08T10:06:07;98653.66;;;7.66;59.16
62057;BME280;48016;50.284;18.860;2023-04-08T10:08:34;98648.48;;;7.57;59.21
62057;BME280;48016;50.284;18.860;2023-04-08T10:11:01;98650.05;;;7.58;59.12
62057;BME280;48016;50.284;18.860;2023-04-08T10:13:28;98650.76;;;7.51;58.81
62057;BME280;48016;50.284;18.860;2023-04-08T10:16:23;98650.29;;;7.49;59.25
62057;BME280;48016;50.284;18.860;2023-04-08T10:18:53;98654.19;;;7.70;58.61
62057;BME280;48016;50.284;18.860;2023-04-08T10:21:41;98658.12;;;7.82;58.78
62057;BME280;48016;50.284;18.860;2023-04-08T10:24:15;98653.08;;;7.99;58.72
62057;BME280;48016;50.284;18.860;2023-04-08T10:26:44;98647.75;;;8.07;57.92
62057;BME280;48016;50.284;18.860;2023-04-08T10:31:47;98652.55;;;8.52;56.97
62057;BME280;48016;50.284;18.860;2023-04-08T10:34:16;98654.51;;;8.68;55.90
62057;BME280;48016;50.284;18.860;2023-04-08T10:36:44;98648.02;;;8.69;54.85
62057;BME280;48016;50.284;18.860;2023-04-08T10:39:14;98647.30;;;8.84;55.89
62057;BME280;48016;50.284;18.860;2023-04-08T10:41:47;98641.39;;;9.01;54.90
62057;BME280;48016;50.284;18.860;2023-04-08T10:44:18;98641.15;;;9.18;54.60
62057;BME280;48016;50.284;18.860;2023-04-08T10:46:46;98650.93;;;9.29;54.18
62057;BME280;48016;50.284;18.860;2023-04-08T10:49:17;98651.03;;;9.41;54.55
62057;BME280;48016;50.284;18.860;2023-04-08T10:51:44;98647.94;;;9.38;53.18
62057;BME280;48016;50.284;18.860;2023-04-08T10:54:13;98649.01;;;9.32;54.11
62057;BME280;48016;50.284;18.860;2023-04-08T10:56:49;98643.41;;;9.36;54.22
62057;BME280;48016;50.284;18.860;2023-04-08T10:59:25;98642.94;;;9.39;54.25
62057;BME280;48016;50.284;18.860;2023-04-08T11:01:52;98646.11;;;9.38;53.72
62057;BME280;48016;50.284;18.860;2023-04-08T11:04:20;98645.48;;;9.29;54.10
62057;BME280;48016;50.284;18.860;2023-04-08T11:06:48;98643.44;;;9.14;52.80
62057;BME280;48016;50.284;18.860;2023-04-08T11:09:15;98649.99;;;8.98;53.38
62057;BME280;48016;50.284;18.860;2023-04-08T11:11:44;98646.60;;;9.02;53.70
62057;BME280;48016;50.284;18.860;2023-04-08T11:14:13;98647.55;;;9.32;53.74
62057;BME280;48016;50.284;18.860;2023-04-08T11:16:39;98648.23;;;9.46;51.85
62057;BME280;48016;50.284;18.860;2023-04-08T11:19:06;98652.75;;;9.52;51.81
62057;BME280;48016;50.284;18.860;2023-04-08T11:21:35;98655.41;;;9.58;50.36
62057;BME280;48016;50.284;18.860;2023-04-08T11:24:08;98651.59;;;9.56;50.20
62057;BME280;48016;50.284;18.860;2023-04-08T11:26:35;98645.16;;;9.64;51.04
62057;BME280;48016;50.284;18.860;2023-04-08T11:29:03;98647.07;;;9.67;51.16
62057;BME280;48016;50.284;18.860;2023-04-08T11:31:30;98650.96;;;9.70;51.29
62057;BME280;48016;50.284;18.860;2023-04-08T11:33:57;98650.45;;;9.72;52.04
62057;BME280;48016;50.284;18.860;2023-04-08T11:36:23;98653.89;;;9.66;52.08
62057;BME280;48016;50.284;18.860;2023-04-08T11:38:53;98658.21;;;9.49;51.61
62057;BME280;48016;50.284;18.860;2023-04-08T11:41:20;98657.64;;;9.22;52.36
62057;BME280;48016;50.284;18.860;2023-04-08T11:43:52;98656.97;;;9.09;53.17
62057;BME280;48016;50.284;18.860;2023-04-08T11:46:18;98662.27;;;9.01;53.18
62057;BME280;48016;50.284;18.860;2023-04-08T11:48:59;98654.65;;;8.89;53.46
62057;BME280;48016;50.284;18.860;2023-04-08T11:51:26;98660.09;;;8.81;53.63
62057;BME280;48016;50.284;18.860;2023-04-08T11:53:54;98662.15;;;8.73;53.82
62057;BME280;48016;50.284;18.860;2023-04-08T11:56:21;98657.58;;;8.78;53.77
62057;BME280;48016;50.284;18.860;2023-04-08T11:58:51;98660.44;;;8.73;53.82
62057;BME280;48016;50.284;18.860;2023-04-08T12:01:19;98659.56;;;8.73;53.75
62057;BME280;48016;50.284;18.860;2023-04-08T12:04:12;98650.44;;;8.81;54.24
62057;BME280;48016;50.284;18.860;2023-04-08T12:06:39;98658.77;;;9.01;53.55
62057;BME280;48016;50.284;18.860;2023-04-08T12:09:08;98657.02;;;8.89;52.57
62057;BME280;48016;50.284;18.860;2023-04-08T12:11:35;98663.72;;;8.66;52.79
62057;BME280;48016;50.284;18.860;2023-04-08T12:14:02;98661.38;;;8.54;53.40
62057;BME280;48016;50.284;18.860;2023-04-08T12:16:28;98660.88;;;8.55;53.74
62057;BME280;48016;50.284;18.860;2023-04-08T12:18:55;98658.34;;;8.50;54.02
62057;BME280;48016;50.284;18.860;2023-04-08T12:21:21;98657.52;;;8.39;54.53
62057;BME280;48016;50.284;18.860;2023-04-08T12:23:48;98651.88;;;8.34;54.74
62057;BME280;48016;50.284;18.860;2023-04-08T12:26:15;98649.64;;;8.25;55.25
62057;BME280;48016;50.284;18.860;2023-04-08T12:28:41;98657.02;;;8.20;55.72
62057;BME280;48016;50.284;18.860;2023-04-08T12:31:08;98664.36;;;8.06;56.22
62057;BME280;48016;50.284;18.860;2023-04-08T12:33:34;98667.14;;;7.95;56.84
62057;BME280;48016;50.284;18.860;2023-04-08T12:36:01;98662.02;;;7.91;57.33
62057;BME280;48016;50.284;18.860;2023-04-08T12:38:28;98663.51;;;7.94;57.81
62057;BME280;48016;50.284;18.860;2023-04-08T12:40:54;98664.89;;;8.00;58.19
62057;BME280;48016;50.284;18.860;2023-04-08T12:43:21;98663.05;;;7.93;59.16
62057;BME280;48016;50.284;18.860;2023-04-08T12:45:49;98667.64;;;7.89;59.54
62057;BME280;48016;50.284;18.860;2023-04-08T12:48:17;98664.61;;;7.87;59.70
62057;BME280;48016;50.284;18.860;2023-04-08T12:50:44;98666.05;;;7.84;60.44
62057;BME280;48016;50.284;18.860;2023-04-08T12:53:11;98662.30;;;7.85;60.38
62057;BME280;48016;50.284;18.860;2023-04-08T12:55:37;98665.33;;;7.86;60.68
62057;BME280;48016;50.284;18.860;2023-04-08T12:58:04;98664.20;;;7.75;60.94
62057;BME280;48016;50.284;18.860;2023-04-08T13:00:31;98664.80;;;7.66;61.45
62057;BME280;48016;50.284;18.860;2023-04-08T13:02:58;98661.15;;;7.63;61.32
62057;BME280;48016;50.284;18.860;2023-04-08T13:05:25;98666.44;;;7.61;62.05
62057;BME280;48016;50.284;18.860;2023-04-08T13:07:51;98665.72;;;7.58;62.26
62057;BME280;48016;50.284;18.860;2023-04-08T13:10:18;98668.23;;;7.57;62.37
62057;BME280;48016;50.284;18.860;2023-04-08T13:12:44;98673.86;;;7.57;62.26
62057;BME280;48016;50.284;18.860;2023-04-08T13:15:11;98672.66;;;7.57;62.38
62057;BME280;48016;50.284;18.860;2023-04-08T13:17:38;98669.08;;;7.63;62.45